createdAt,value
2022-09-22T00:00:59.855Z,4.20
2022-09-22T00:03:31.181Z,4.20
2022-09-22T00:06:03.470Z,4.20
2022-09-22T00:08:32.487Z,4.10
2022-09-22T00:11:17.012Z,4.00
2022-09-22T00:14:00.105Z,4.00
2022-09-22T00:16:30.391Z,4.00
2022-09-22T00:18:57.575Z,4.00
2022-09-22T00:21:27.623Z,3.90
2022-09-22T00:23:54.792Z,3.90
2022-09-22T00:26:23.570Z,3.90
2022-09-22T00:28:51.309Z,3.90
2022-09-22T00:31:23.695Z,3.90
2022-09-22T00:33:52.649Z,3.90
2022-09-22T00:36:25.512Z,3.90
2022-09-22T00:38:53.943Z,4.00
2022-09-22T00:41:38.540Z,4.10
2022-09-22T00:44:31.531Z,4.00
2022-09-22T00:47:13.287Z,3.90
2022-09-22T00:50:05.451Z,3.80
2022-09-22T00:52:40.906Z,3.80
2022-09-22T00:55:14.209Z,3.80
2022-09-22T00:57:44.067Z,3.80
2022-09-22T01:00:12.731Z,4.00
2022-09-22T01:02:39.999Z,3.90
2022-09-22T01:05:08.548Z,3.80
2022-09-22T01:07:36.071Z,3.80
2022-09-22T01:10:02.854Z,3.90
2022-09-22T01:12:31.578Z,4.10
2022-09-22T01:15:10.755Z,4.00
2022-09-22T01:17:37.337Z,3.90
2022-09-22T01:20:33.386Z,3.80
2022-09-22T01:23:15.487Z,3.80
2022-09-22T01:26:09.737Z,3.80
2022-09-22T01:28:42.183Z,3.80
2022-09-22T01:31:34.850Z,3.70
2022-09-22T01:34:23.453Z,3.70
2022-09-22T01:37:04.249Z,3.70
2022-09-22T01:39:38.433Z,3.60
2022-09-22T01:42:32.885Z,3.60
2022-09-22T01:45:10.400Z,3.60
2022-09-22T01:47:43.789Z,3.60
2022-09-22T01:50:25.134Z,3.60
2022-09-22T01:52:53.675Z,3.60
2022-09-22T01:55:25.519Z,3.60
2022-09-22T01:58:05.271Z,3.70
2022-09-22T02:00:32.559Z,3.70
2022-09-22T02:03:24.680Z,3.60
2022-09-22T02:05:59.645Z,3.70
2022-09-22T02:08:35.140Z,3.90
2022-09-22T02:11:09.651Z,3.80
2022-09-22T02:13:36.884Z,3.90
2022-09-22T02:16:05.311Z,4.10
2022-09-22T02:18:49.537Z,3.90
2022-09-22T02:21:17.614Z,3.90
2022-09-22T02:23:46.392Z,3.70
2022-09-22T02:26:23.526Z,3.70
2022-09-22T02:28:54.233Z,3.70
2022-09-22T02:31:24.709Z,3.60
2022-09-22T02:33:52.057Z,3.60
2022-09-22T02:36:23.839Z,3.50
2022-09-22T02:39:01.068Z,3.40
2022-09-22T02:41:51.112Z,3.30
2022-09-22T02:44:46.908Z,3.30
2022-09-22T02:47:16.528Z,3.30
2022-09-22T02:49:44.344Z,3.30
2022-09-22T02:52:13.024Z,3.20
2022-09-22T02:54:39.913Z,3.20
2022-09-22T02:57:07.219Z,3.20
2022-09-22T02:59:33.867Z,3.20
2022-09-22T03:02:00.547Z,3.20
2022-09-22T03:04:27.570Z,3.20
2022-09-22T03:06:56.958Z,3.20
2022-09-22T03:09:24.042Z,3.30
2022-09-22T03:11:50.719Z,3.50
2022-09-22T03:14:17.394Z,3.50
2022-09-22T03:16:43.996Z,3.30
2022-09-22T03:19:10.976Z,3.30
2022-09-22T03:21:38.048Z,3.20
2022-09-22T03:24:04.848Z,3.20
2022-09-22T03:26:31.566Z,3.20
2022-09-22T03:28:58.196Z,3.40
2022-09-22T03:31:25.047Z,3.40
2022-09-22T03:33:52.856Z,3.30
2022-09-22T03:36:19.883Z,3.30
2022-09-22T03:38:46.546Z,3.30
2022-09-22T03:41:13.215Z,3.20
2022-09-22T03:43:39.845Z,3.20
2022-09-22T03:46:06.781Z,3.10
2022-09-22T03:48:33.611Z,3.10
2022-09-22T03:51:00.546Z,3.10
2022-09-22T03:53:27.787Z,3.00
2022-09-22T03:56:07.972Z,3.10
2022-09-22T03:58:35.069Z,3.00
2022-09-22T04:01:01.909Z,3.00
2022-09-22T04:03:29.502Z,3.00
2022-09-22T04:05:56.586Z,2.90
2022-09-22T04:08:23.438Z,3.00
2022-09-22T04:10:50.322Z,3.20
2022-09-22T04:13:17.038Z,3.30
2022-09-22T04:15:46.086Z,3.50
2022-09-22T04:18:14.344Z,3.60
2022-09-22T04:20:43.601Z,3.60
2022-09-22T04:23:11.594Z,3.60
2022-09-22T04:25:39.854Z,3.60
2022-09-22T04:28:07.046Z,3.60
2022-09-22T04:30:34.631Z,3.50
2022-09-22T04:33:01.369Z,3.30
2022-09-22T04:35:28.540Z,3.20
2022-09-22T04:37:55.865Z,3.20
2022-09-22T04:40:24.118Z,3.10
2022-09-22T04:42:51.359Z,3.10
2022-09-22T04:45:18.098Z,3.00
2022-09-22T04:47:49.761Z,3.10
2022-09-22T04:50:20.405Z,3.00
2022-09-22T04:52:50.230Z,3.10
2022-09-22T04:55:20.526Z,3.00
2022-09-22T04:57:52.243Z,3.00
2022-09-22T05:00:19.893Z,3.00
2022-09-22T05:02:46.650Z,3.00
2022-09-22T05:05:13.412Z,2.90
2022-09-22T05:07:47.511Z,2.90
2022-09-22T05:10:16.386Z,3.20
2022-09-22T05:12:43.767Z,3.10
2022-09-22T05:15:12.515Z,3.30
2022-09-22T05:17:46.239Z,3.30
2022-09-22T05:20:12.946Z,3.50
2022-09-22T05:22:40.216Z,3.70
2022-09-22T05:25:09.103Z,3.80
2022-09-22T05:27:35.787Z,3.80
2022-09-22T05:30:02.428Z,3.90
2022-09-22T05:32:29.529Z,3.90
2022-09-22T05:34:57.061Z,4.00
2022-09-22T05:37:23.733Z,3.90
2022-09-22T05:39:50.462Z,3.80
2022-09-22T05:42:17.173Z,3.80
2022-09-22T05:44:43.782Z,3.90
2022-09-22T05:47:10.380Z,3.80
2022-09-22T05:49:37.042Z,3.80
2022-09-22T05:52:03.709Z,3.90
2022-09-22T05:54:30.321Z,4.10
2022-09-22T05:56:56.997Z,4.00
2022-09-22T05:59:23.651Z,3.90
2022-09-22T06:01:50.338Z,3.90
2022-09-22T06:04:17.140Z,4.10
2022-09-22T06:06:43.918Z,4.30
2022-09-22T06:09:10.536Z,4.40
2022-09-22T06:11:37.332Z,4.30
2022-09-22T06:14:03.966Z,4.30
2022-09-22T06:16:31.714Z,4.40
2022-09-22T06:18:58.822Z,4.40
2022-09-22T06:21:25.801Z,4.60
2022-09-22T06:23:52.583Z,4.70
2022-09-22T06:26:19.881Z,4.90
2022-09-22T06:28:46.956Z,5.00
2022-09-22T06:31:15.057Z,5.10
2022-09-22T06:33:48.113Z,5.20
2022-09-22T06:36:23.851Z,5.40
2022-09-22T06:38:50.934Z,5.60
2022-09-22T06:41:17.587Z,5.60
2022-09-22T06:43:48.687Z,5.80
2022-09-22T06:46:18.461Z,5.90
2022-09-22T06:48:45.240Z,6.00
2022-09-22T06:51:13.910Z,5.90
2022-09-22T06:53:40.840Z,6.10
2022-09-22T06:56:08.465Z,6.20
2022-09-22T06:58:52.550Z,6.40
2022-09-22T07:01:24.693Z,6.60
2022-09-22T07:03:52.317Z,6.80
2022-09-22T07:06:20.383Z,6.90
2022-09-22T07:08:48.701Z,7.10
2022-09-22T07:11:17.952Z,7.10
2022-09-22T07:13:46.180Z,7.30
2022-09-22T07:16:18.940Z,7.40
2022-09-22T07:18:51.738Z,7.60
2022-09-22T07:21:22.688Z,7.90
2022-09-22T07:23:52.077Z,8.00
2022-09-22T07:26:26.343Z,8.20
2022-09-22T07:28:53.797Z,8.30
2022-09-22T07:31:26.291Z,8.70
2022-09-22T07:33:56.193Z,9.20
2022-09-22T07:36:26.019Z,9.60
2022-09-22T07:38:54.980Z,10.00
2022-09-22T07:41:27.427Z,10.30
2022-09-22T07:43:57.451Z,10.70
2022-09-22T07:46:24.374Z,10.80
2022-09-22T07:48:51.222Z,11.20
2022-09-22T07:51:23.288Z,11.50
2022-09-22T07:54:09.475Z,11.90
2022-09-22T07:56:41.392Z,12.30
2022-09-22T07:59:12.906Z,12.50
2022-09-22T08:01:47.570Z,12.70
2022-09-22T08:04:16.678Z,13.00
2022-09-22T08:06:45.222Z,13.30
2022-09-22T08:09:13.314Z,13.70
2022-09-22T08:11:40.675Z,13.90
2022-09-22T08:14:11.114Z,14.10
2022-09-22T08:16:39.882Z,14.10
2022-09-22T08:19:14.964Z,14.30
2022-09-22T08:21:49.186Z,14.40
2022-09-22T08:24:22.465Z,14.20
2022-09-22T08:26:50.765Z,14.10
2022-09-22T08:29:17.422Z,14.40
2022-09-22T08:31:47.590Z,14.60
2022-09-22T08:34:16.171Z,14.60
2022-09-22T08:36:46.333Z,14.70
2022-09-22T08:39:13.291Z,14.70
2022-09-22T08:42:08.301Z,14.90
2022-09-22T08:45:27.159Z,15.10
2022-09-22T08:48:18.041Z,15.60
2022-09-22T08:51:23.260Z,15.90
2022-09-22T08:53:51.501Z,16.00
2022-09-22T08:56:30.723Z,16.10
2022-09-22T08:59:14.792Z,15.70
2022-09-22T09:01:49.628Z,15.90
2022-09-22T09:04:36.567Z,16.00
2022-09-22T09:07:09.935Z,16.20
2022-09-22T09:09:48.900Z,16.20
2022-09-22T09:12:34.512Z,16.50
2022-09-22T09:15:15.131Z,16.80
2022-09-22T09:17:45.464Z,16.90
2022-09-22T09:20:30.677Z,16.90
2022-09-22T09:22:59.521Z,17.00
2022-09-22T09:25:38.080Z,17.20
2022-09-22T09:28:07.597Z,17.30
2022-09-22T09:30:46.329Z,17.60
2022-09-22T09:33:28.926Z,17.70
2022-09-22T09:35:56.250Z,17.70
2022-09-22T09:38:38.264Z,17.50
2022-09-22T09:41:19.371Z,17.10
2022-09-22T09:43:46.069Z,17.10
2022-09-22T09:46:26.657Z,17.10
2022-09-22T09:49:16.787Z,17.50
2022-09-22T09:51:46.948Z,17.60
2022-09-22T09:54:17.580Z,17.90
2022-09-22T09:57:08.305Z,17.60
2022-09-22T09:59:55.775Z,17.70
2022-09-22T10:02:29.037Z,17.80
2022-09-22T10:04:59.676Z,17.70
2022-09-22T10:07:28.204Z,17.70
2022-09-22T10:09:56.262Z,18.00
2022-09-22T10:12:28.925Z,18.30
2022-09-22T10:14:58.879Z,18.50
2022-09-22T10:17:28.678Z,18.00
2022-09-22T10:20:18.197Z,17.60
2022-09-22T10:22:45.636Z,17.10
2022-09-22T10:25:31.847Z,16.90
2022-09-22T10:27:59.488Z,17.20
2022-09-22T10:30:27.296Z,17.50
2022-09-22T10:33:20.578Z,17.40
2022-09-22T10:36:09.212Z,17.10
2022-09-22T10:38:41.399Z,17.00
2022-09-22T10:41:19.242Z,17.10
2022-09-22T10:44:15.437Z,17.20
2022-09-22T10:47:03.155Z,17.10
2022-09-22T10:49:31.099Z,17.20
2022-09-22T10:52:22.853Z,17.20
2022-09-22T10:55:12.837Z,16.90
2022-09-22T10:58:00.776Z,16.90
2022-09-22T11:00:28.960Z,17.00
2022-09-22T11:02:55.550Z,16.60
2022-09-22T11:06:08.651Z,16.90
2022-09-22T11:09:08.746Z,17.10
2022-09-22T11:12:31.180Z,17.20
2022-09-22T11:15:00.978Z,17.40
2022-09-22T11:17:33.570Z,17.40
2022-09-22T11:20:30.001Z,17.40
2022-09-22T11:23:35.620Z,17.20
2022-09-22T11:26:05.291Z,17.20
2022-09-22T11:28:57.410Z,17.40
2022-09-22T11:31:48.447Z,17.60
2022-09-22T11:34:18.539Z,17.60
2022-09-22T11:37:01.245Z,17.50
2022-09-22T11:39:49.394Z,17.40
2022-09-22T11:42:30.956Z,17.50
2022-09-22T11:45:28.375Z,17.80
2022-09-22T11:48:21.516Z,18.00
2022-09-22T11:51:00.785Z,18.10
2022-09-22T11:53:40.049Z,17.90
2022-09-22T11:56:34.841Z,17.50
2022-09-22T11:59:24.484Z,17.20
2022-09-22T12:01:53.436Z,16.70
2022-09-22T12:04:32.061Z,16.30
2022-09-22T12:07:03.825Z,16.20
2022-09-22T12:09:37.309Z,16.60
2022-09-22T12:12:06.354Z,16.80
2022-09-22T12:14:34.994Z,17.10
2022-09-22T12:17:13.023Z,17.40
2022-09-22T12:20:02.198Z,17.40
2022-09-22T12:22:32.523Z,17.50
2022-09-22T12:24:59.152Z,18.10
2022-09-22T12:27:28.177Z,18.50
2022-09-22T12:30:24.077Z,18.60
2022-09-22T12:32:51.348Z,18.30
2022-09-22T12:35:28.723Z,18.30
2022-09-22T12:38:02.058Z,17.90
2022-09-22T12:40:41.205Z,18.10
2022-09-22T12:43:17.919Z,17.80
2022-09-22T12:45:45.648Z,18.00
2022-09-22T12:48:19.341Z,17.80
2022-09-22T12:50:46.409Z,17.80
2022-09-22T12:53:22.279Z,18.10
2022-09-22T12:55:50.189Z,18.10
2022-09-22T12:58:23.626Z,18.10
2022-09-22T13:00:56.192Z,18.10
2022-09-22T13:03:30.068Z,17.90
2022-09-22T13:06:03.325Z,17.80
2022-09-22T13:08:33.038Z,18.00
2022-09-22T13:11:00.883Z,18.30
2022-09-22T13:13:38.555Z,18.40
2022-09-22T13:16:14.358Z,18.20
2022-09-22T13:18:42.290Z,18.10
2022-09-22T13:21:11.890Z,18.20
2022-09-22T13:24:02.592Z,17.90
2022-09-22T13:26:34.409Z,18.20
2022-09-22T13:29:19.061Z,18.00
2022-09-22T13:31:57.770Z,18.20
2022-09-22T13:34:31.982Z,17.90
2022-09-22T13:37:07.753Z,17.70
2022-09-22T13:39:40.402Z,17.80
2022-09-22T13:42:36.786Z,17.50
2022-09-22T13:45:08.712Z,17.10
2022-09-22T13:47:37.004Z,17.00
2022-09-22T13:50:19.389Z,17.30
2022-09-22T13:52:50.534Z,17.20
2022-09-22T13:55:30.359Z,17.20
2022-09-22T13:57:59.167Z,17.20
2022-09-22T14:00:41.384Z,16.80
2022-09-22T14:03:21.392Z,16.70
2022-09-22T14:05:53.793Z,16.50
2022-09-22T14:08:27.525Z,16.40
2022-09-22T14:10:54.712Z,16.80
2022-09-22T14:13:52.543Z,16.90
2022-09-22T14:16:29.768Z,17.30
2022-09-22T14:19:03.578Z,17.00
2022-09-22T14:21:42.925Z,16.80
2022-09-22T14:24:13.370Z,16.70
2022-09-22T14:26:44.596Z,16.60
2022-09-22T14:29:23.769Z,16.30
2022-09-22T14:32:00.330Z,16.20
2022-09-22T14:34:31.138Z,16.30
2022-09-22T14:36:59.002Z,16.30
2022-09-22T14:39:35.707Z,16.20
2022-09-22T14:42:16.381Z,16.20
2022-09-22T14:44:45.999Z,16.20
2022-09-22T14:47:29.730Z,16.30
2022-09-22T14:50:19.742Z,16.30
2022-09-22T14:52:58.670Z,16.20
2022-09-22T14:55:42.839Z,16.10
2022-09-22T14:58:28.900Z,16.10
2022-09-22T15:01:13.938Z,16.10
2022-09-22T15:03:43.686Z,16.10
2022-09-22T15:06:13.451Z,16.40
2022-09-22T15:08:42.500Z,16.70
2022-09-22T15:11:09.460Z,16.70
2022-09-22T15:13:47.486Z,16.60
2022-09-22T15:16:37.743Z,16.50
2022-09-22T15:19:05.422Z,16.50
2022-09-22T15:21:37.771Z,16.60
2022-09-22T15:24:05.545Z,16.60
2022-09-22T15:26:33.155Z,16.60
2022-09-22T15:29:01.536Z,16.60
2022-09-22T15:31:29.570Z,16.50
2022-09-22T15:33:59.955Z,16.60
2022-09-22T15:36:30.405Z,16.50
2022-09-22T15:39:01.083Z,16.50
2022-09-22T15:41:28.052Z,16.50
2022-09-22T15:43:54.978Z,16.40
2022-09-22T15:46:33.582Z,16.40
2022-09-22T15:49:03.915Z,16.40
2022-09-22T15:51:31.516Z,16.40
2022-09-22T15:53:58.415Z,16.20
2022-09-22T15:56:29.455Z,16.10
2022-09-22T15:59:01.855Z,16.10
2022-09-22T16:01:29.577Z,16.10
2022-09-22T16:03:59.863Z,16.20
2022-09-22T16:06:27.101Z,16.30
2022-09-22T16:08:55.157Z,16.30
2022-09-22T16:11:28.183Z,16.20
2022-09-22T16:14:01.561Z,16.10
2022-09-22T16:16:29.675Z,15.90
2022-09-22T16:18:57.204Z,15.90
2022-09-22T16:21:33.044Z,15.80
2022-09-22T16:24:03.811Z,15.80
2022-09-22T16:26:31.668Z,15.80
2022-09-22T16:28:58.993Z,15.70
2022-09-22T16:31:25.904Z,15.80
2022-09-22T16:33:58.065Z,15.70
2022-09-22T16:36:27.061Z,15.60
2022-09-22T16:38:55.248Z,15.60
2022-09-22T16:41:27.836Z,15.50
2022-09-22T16:43:55.940Z,15.40
2022-09-22T16:46:26.691Z,15.30
2022-09-22T16:49:05.241Z,15.30
2022-09-22T16:51:33.554Z,15.20
2022-09-22T16:54:00.356Z,15.00
2022-09-22T16:56:30.831Z,14.80
2022-09-22T16:58:58.099Z,14.70
2022-09-22T17:01:26.306Z,14.70
2022-09-22T17:03:53.687Z,14.60
2022-09-22T17:06:25.322Z,14.50
2022-09-22T17:08:53.522Z,14.50
2022-09-22T17:11:23.217Z,14.50
2022-09-22T17:13:50.686Z,14.30
2022-09-22T17:16:20.162Z,14.30
2022-09-22T17:18:47.039Z,14.30
2022-09-22T17:21:19.716Z,14.10
2022-09-22T17:23:46.363Z,14.10
2022-09-22T17:26:12.959Z,14.10
2022-09-22T17:28:40.772Z,14.10
2022-09-22T17:31:07.869Z,13.90
2022-09-22T17:33:36.719Z,13.80
2022-09-22T17:36:05.719Z,13.80
2022-09-22T17:38:36.077Z,13.70
2022-09-22T17:41:10.033Z,13.50
2022-09-22T17:43:39.837Z,13.40
2022-09-22T17:46:07.725Z,13.30
2022-09-22T17:48:52.897Z,13.00
2022-09-22T17:52:00.441Z,12.90
2022-09-22T17:54:50.891Z,12.80
2022-09-22T17:57:24.991Z,12.70
2022-09-22T17:59:52.341Z,12.50
2022-09-22T18:02:20.704Z,12.30
2022-09-22T18:04:47.784Z,12.10
2022-09-22T18:07:19.986Z,11.90
2022-09-22T18:09:49.148Z,11.80
2022-09-22T18:12:21.512Z,11.80
2022-09-22T18:14:50.154Z,11.70
2022-09-22T18:17:22.006Z,11.50
2022-09-22T18:19:48.613Z,11.40
2022-09-22T18:22:21.138Z,11.40
2022-09-22T18:24:49.726Z,11.40
2022-09-22T18:27:19.522Z,11.20
2022-09-22T18:29:49.842Z,11.20
2022-09-22T18:32:19.604Z,11.10
2022-09-22T18:34:47.395Z,11.00
2022-09-22T18:37:15.600Z,10.90
2022-09-22T18:39:44.828Z,10.90
2022-09-22T18:42:12.528Z,10.90
2022-09-22T18:44:41.068Z,10.80
2022-09-22T18:47:12.916Z,10.70
2022-09-22T18:49:40.641Z,10.70
2022-09-22T18:52:08.386Z,10.60
2022-09-22T18:54:42.814Z,10.60
2022-09-22T18:57:13.076Z,10.50
2022-09-22T18:59:40.187Z,10.40
2022-09-22T19:02:11.259Z,10.30
2022-09-22T19:04:38.788Z,10.30
2022-09-22T19:07:26.386Z,10.30
2022-09-22T19:09:53.037Z,10.20
2022-09-22T19:12:21.449Z,10.10
2022-09-22T19:14:56.042Z,10.00
2022-09-22T19:17:26.827Z,10.00
2022-09-22T19:19:53.689Z,9.80
2022-09-22T19:22:22.644Z,9.80
2022-09-22T19:24:50.775Z,9.70
2022-09-22T19:27:19.423Z,9.60
2022-09-22T19:29:46.067Z,9.60
2022-09-22T19:32:12.870Z,9.50
2022-09-22T19:34:39.519Z,9.50
2022-09-22T19:37:06.882Z,9.50
2022-09-22T19:39:33.638Z,9.50
2022-09-22T19:42:00.329Z,9.50
2022-09-22T19:44:29.537Z,9.50
2022-09-22T19:46:56.398Z,9.40
2022-09-22T19:49:23.937Z,9.40
2022-09-22T19:51:50.628Z,9.40
2022-09-22T19:54:18.307Z,9.20
2022-09-22T19:56:44.917Z,9.20
2022-09-22T19:59:11.792Z,9.00
2022-09-22T20:01:41.545Z,9.00
2022-09-22T20:04:19.890Z,8.80
2022-09-22T20:06:48.593Z,8.60
2022-09-22T20:09:16.093Z,8.50
2022-09-22T20:11:48.433Z,8.50
2022-09-22T20:14:22.380Z,8.40
2022-09-22T20:17:06.786Z,8.40
2022-09-22T20:19:38.206Z,8.40
2022-09-22T20:22:27.583Z,8.30
2022-09-22T20:25:00.337Z,8.40
2022-09-22T20:27:30.837Z,8.20
2022-09-22T20:29:57.997Z,8.20
2022-09-22T20:32:26.505Z,8.00
2022-09-22T20:34:54.236Z,7.80
2022-09-22T20:37:21.888Z,7.70
2022-09-22T20:39:48.538Z,7.80
2022-09-22T20:42:15.741Z,7.60
2022-09-22T20:44:42.782Z,7.60
2022-09-22T20:47:14.419Z,7.70
2022-09-22T20:49:41.767Z,7.60
2022-09-22T20:52:12.460Z,7.60
2022-09-22T20:54:39.082Z,7.50
2022-09-22T20:57:05.757Z,7.60
2022-09-22T20:59:33.161Z,7.60
2022-09-22T21:02:00.795Z,7.60
2022-09-22T21:04:28.933Z,7.50
2022-09-22T21:06:58.447Z,7.60
2022-09-22T21:09:45.619Z,7.60
2022-09-22T21:12:13.370Z,7.50
2022-09-22T21:14:42.055Z,7.50
2022-09-22T21:17:08.766Z,7.40
2022-09-22T21:19:36.349Z,7.20
2022-09-22T21:22:04.704Z,7.10
2022-09-22T21:24:32.408Z,7.00
2022-09-22T21:26:59.596Z,7.10
2022-09-22T21:29:26.275Z,7.00
2022-09-22T21:31:52.961Z,6.90
2022-09-22T21:34:19.817Z,6.80
2022-09-22T21:36:46.782Z,6.90
2022-09-22T21:39:13.435Z,6.80
2022-09-22T21:41:40.083Z,6.80
2022-09-22T21:44:07.227Z,6.80
2022-09-22T21:46:37.010Z,6.60
2022-09-22T21:49:04.211Z,6.50
2022-09-22T21:51:34.229Z,6.50
2022-09-22T21:54:05.252Z,6.50
2022-09-22T21:56:33.574Z,6.50
2022-09-22T21:59:02.290Z,6.50
2022-09-22T22:01:37.662Z,6.40
2022-09-22T22:04:07.856Z,6.40
2022-09-22T22:06:41.938Z,6.50
2022-09-22T22:09:14.511Z,6.50
2022-09-22T22:11:45.238Z,6.40
2022-09-22T22:14:13.867Z,6.40
2022-09-22T22:16:46.593Z,6.40
2022-09-22T22:19:17.031Z,6.30
2022-09-22T22:21:44.286Z,6.20
2022-09-22T22:24:21.885Z,6.10
2022-09-22T22:26:54.894Z,6.10
2022-09-22T22:29:23.295Z,6.10
2022-09-22T22:31:51.490Z,6.10
2022-09-22T22:34:22.625Z,6.20
2022-09-22T22:36:49.709Z,6.20
2022-09-22T22:39:16.758Z,6.30
2022-09-22T22:41:44.388Z,6.20
2022-09-22T22:44:12.255Z,6.30
2022-09-22T22:46:38.925Z,6.30
2022-09-22T22:49:07.552Z,6.10
2022-09-22T22:51:35.985Z,6.10
2022-09-22T22:54:02.755Z,6.10
2022-09-22T22:56:32.147Z,6.10
2022-09-22T22:58:59.180Z,6.00
2022-09-22T23:01:31.457Z,6.10
2022-09-22T23:04:07.156Z,6.00
2022-09-22T23:06:36.293Z,5.90
2022-09-22T23:09:04.253Z,5.90
2022-09-22T23:11:35.760Z,5.90
2022-09-22T23:14:03.916Z,5.80
2022-09-22T23:16:33.043Z,5.70
2022-09-22T23:19:01.695Z,5.70
2022-09-22T23:21:32.595Z,5.80
2022-09-22T23:24:00.900Z,5.80
2022-09-22T23:26:29.341Z,5.80
2022-09-22T23:28:59.862Z,5.70
2022-09-22T23:31:27.648Z,5.80
2022-09-22T23:33:54.867Z,5.80
2022-09-22T23:36:24.242Z,5.70
2022-09-22T23:39:04.787Z,5.80
2022-09-22T23:41:33.399Z,5.90
2022-09-22T23:44:00.430Z,6.00
2022-09-22T23:46:27.124Z,5.90
2022-09-22T23:48:55.305Z,5.80
2022-09-22T23:51:22.037Z,5.70
2022-09-22T23:53:48.645Z,5.80
2022-09-22T23:56:15.290Z,5.70
2022-09-22T23:58:42.160Z,5.90
